Hickory, Mississippi
Current Conditions -  °F | °C
As of 2:58 PM on Wednesday 17 Dec 2014 (Local Time) from KMEI Reporting Station
Clear Clear  
Wind Chill: 55°   Ceiling: Unl
Heat Index: 55°   Visibility: 10mi
Dew Point: 37°   Wind: 5mph
Humidity: 51%   Direction: 300°WNW
Pressure: 30.21"   Gusts: NA
Location:  32.32°N, 89.03°W
Report Text: KMEI 172058Z 30004KT 10SM CLR 13/03 A3021 RMK AO2 SLP229 T01280028 55020
Loading
Personal Weather Stations






























Interactive Weather Map New forecast layout! Learn more

10-Day Weather Forecast

Advertisements
Track Severe Weather on mobile